메인 페이지
METAR-TAF:

METAR-TAF

공항 :

바트만, 터키

위도: 37-52N, 경도: 041-10E, 고도: 540m

현재 날씨관측

예보는 43분 전, 01:20시(UTC)에 발표되었습니다.
1kt
온도 17°C
습도 48%
기압 1013 hPa
시정 10km 이상
1500m 미만 상공 구름 및 적란운 없음

METAR: LTCJ 290120Z 26001KT CAVOK 17/06 Q1013 RMK RWY20 00000KT SKC

시각: 05:03 (02:03 UTC)

예보

예보는 3 시간 23분 전, 22:40시(UTC)에 발표되었습니다.
예보 대상 시간: 29일 00시부터 29일 24시까지 (UTC)
여러 방향의 바람 2kt
시정 10km 이상
1500m 미만 상공 구름 및 적란운 없음

TAF: LTCJ 282240Z 2900/2924 VRB02KT CAVOK

4,000개 이상의 공항 관측 자료 및 예보 (METAR 및 TAF 보고).

지도상에서 검색 가능한 기상관측소가 노란 점과 빨간 점으로 표시되어 있습니다.

기상관측소 명을 보려면 표시 위로 마우스를 이동하세요.

날씨 관측과 예보를 보려면 클릭하세요.

지도 변경 : 확대하려면 엑스 표시가 있는 녹색 버튼, 축소하려면 빼기 표시가 있는 녹색 버튼, 다음 페이지의 지도를 보려면 녹색 화살표를 클릭하세요.


METAR-TAF: